Time;durP1;ratioP1;P1;durP2;ratioP2;P2;SDS_P1;SDS_P2;PMS_P1;PMS_P2;Temp;Humidity;BMP_temperature;BMP_pressure;BME280_temperature;BME280_humidity;BME280_pressure;Samples;Min_cycle;Max_cycle;Signal;HPM_P1;HPM_P2
2024/02/24 00:01:02;;;;;;;8.10;6.80;;;;;;;8.21;100.00;97339.44;109049;1254;59981;-77
2024/02/24 00:03:49;;;;;;;7.00;6.30;;;;;;;8.22;100.00;97329.23;109310;1254;59759;-77
2024/02/24 00:06:15;;;;;;;10.00;7.40;;;;;;;8.23;100.00;97329.84;109335;1254;67807;-78
2024/02/24 00:08:42;;;;;;;7.20;6.50;;;;;;;8.24;100.00;97328.91;109305;1254;60029;-77
2024/02/24 00:11:09;;;;;;;8.70;7.90;;;;;;;8.24;100.00;97318.77;109307;1254;64204;-77
2024/02/24 00:13:35;;;;;;;8.20;7.30;;;;;;;8.24;100.00;97306.58;109304;1254;59801;-77
2024/02/24 00:16:06;;;;;;;9.10;8.20;;;;;;;8.24;100.00;97300.39;109202;1254;59825;-77
2024/02/24 00:18:33;;;;;;;;;;;;;;;8.28;100.00;97297.92;109144;1254;67712;-77
2024/02/24 00:21:00;;;;;;;7.30;6.50;;;;;;;8.32;100.00;97297.75;109321;1254;61182;-76
2024/02/24 00:23:26;;;;;;;8.30;6.90;;;;;;;8.34;100.00;97299.16;109273;1254;63928;-76
2024/02/24 00:25:53;;;;;;;9.00;7.10;;;;;;;8.37;100.00;97294.38;109183;1254;60123;-77
2024/02/24 00:28:20;;;;;;;7.90;7.10;;;;;;;8.40;100.00;97287.02;109008;1254;59864;-76
2024/02/24 00:30:47;;;;;;;8.50;7.40;;;;;;;8.44;100.00;97290.11;109327;1254;66693;-77
2024/02/24 00:33:13;;;;;;;7.90;7.00;;;;;;;8.46;100.00;97294.88;109312;1254;60847;-76
2024/02/24 00:35:40;;;;;;;7.80;6.90;;;;;;;8.46;100.00;97299.27;109286;1254;64057;-77
2024/02/24 00:38:07;;;;;;;8.50;7.20;;;;;;;8.48;100.00;97295.92;109295;1254;60148;-77
2024/02/24 00:40:34;;;;;;;9.10;7.00;;;;;;;8.50;100.00;97290.80;109366;1254;59763;-77
2024/02/24 00:43:00;;;;;;;7.80;6.70;;;;;;;8.51;100.00;97293.84;109321;1254;67881;-76
2024/02/24 00:45:27;;;;;;;8.50;7.50;;;;;;;8.55;100.00;97292.30;109070;1254;61160;-76
2024/02/24 00:47:54;;;;;;;9.70;8.60;;;;;;;8.61;100.00;97302.75;109306;1254;63982;-76
2024/02/24 00:50:23;;;;;;;8.80;7.10;;;;;;;8.63;100.00;97309.31;109301;1254;59828;-76
2024/02/24 00:52:49;;;;;;;9.80;8.80;;;;;;;8.63;100.00;97309.66;109290;1255;59909;-76
2024/02/24 00:55:16;;;;;;;9.10;7.20;;;;;;;8.63;100.00;97309.84;109303;1254;66435;-77
2024/02/24 00:57:43;;;;;;;8.50;7.60;;;;;;;8.65;100.00;97304.16;109096;1254;61080;-76
2024/02/24 01:00:10;;;;;;;7.50;6.50;;;;;;;8.68;100.00;97299.88;109262;1254;63940;-77
2024/02/24 01:02:36;;;;;;;7.40;6.40;;;;;;;8.74;100.00;97288.02;109275;1254;59754;-76
2024/02/24 01:05:03;;;;;;;7.60;6.80;;;;;;;8.81;100.00;97281.38;109317;1254;59861;-77
2024/02/24 01:07:30;;;;;;;11.20;7.30;;;;;;;8.87;100.00;97280.33;108973;1254;68055;-76
2024/02/24 01:09:56;;;;;;;6.90;6.30;;;;;;;8.93;100.00;97283.66;109307;1254;61619;-77
2024/02/24 01:12:23;;;;;;;7.90;6.20;;;;;;;8.98;100.00;97293.83;109288;1254;65381;-76
2024/02/24 01:14:50;;;;;;;6.40;5.90;;;;;;;9.02;100.00;97289.61;108996;1254;59977;-77
2024/02/24 01:17:16;;;;;;;8.30;6.20;;;;;;;9.06;100.00;97293.68;109284;1254;60117;-76
2024/02/24 01:19:43;;;;;;;6.80;6.20;;;;;;;9.07;100.00;97299.84;109286;1254;67792;-76
2024/02/24 01:22:11;;;;;;;7.20;6.30;;;;;;;9.06;100.00;97299.77;109282;1254;59974;-76
2024/02/24 01:24:38;;;;;;;7.80;6.80;;;;;;;9.02;100.00;97294.80;109301;1254;65249;-76
2024/02/24 01:27:05;;;;;;;7.20;6.40;;;;;;;8.99;100.00;97287.20;109274;1255;59795;-77
2024/02/24 01:29:32;;;;;;;7.80;7.00;;;;;;;8.99;100.00;97285.49;109309;1254;60160;-77
2024/02/24 01:32:01;;;;;;;8.40;6.40;;;;;;;8.97;100.00;97281.55;109269;1256;67560;-77
2024/02/24 01:34:27;;;;;;;8.20;5.80;;;;;;;8.94;100.00;97283.83;109272;1256;60906;-77
2024/02/24 01:36:54;;;;;;;6.70;6.00;;;;;;;8.89;100.00;97280.67;109270;1254;65205;-75
2024/02/24 01:39:21;;;;;;;6.70;6.10;;;;;;;8.85;100.00;97282.11;109309;1254;59812;-75
2024/02/24 01:41:48;;;;;;;7.10;6.40;;;;;;;8.80;100.00;97278.23;109318;1254;59696;-76
2024/02/24 01:44:18;;;;;;;8.40;7.20;;;;;;;8.78;100.00;97283.21;109295;1254;67947;-76
2024/02/24 01:46:46;;;;;;;;;;;;;;;8.78;100.00;97285.20;109321;1254;61376;-76
2024/02/24 01:49:13;;;;;;;7.20;6.00;;;;;;;8.75;100.00;97286.11;109272;1254;64192;-76
2024/02/24 01:51:41;;;;;;;6.70;6.00;;;;;;;8.73;100.00;97288.75;109286;1254;59729;-76
2024/02/24 01:54:08;;;;;;;8.90;7.70;;;;;;;8.72;100.00;97287.96;109282;1254;60168;-76
2024/02/24 01:56:37;;;;;;;7.80;6.90;;;;;;;8.72;100.00;97280.19;109294;1254;66623;-77
2024/02/24 01:59:04;;;;;;;8.10;7.20;;;;;;;8.71;100.00;97275.63;109274;1254;60026;-76
2024/02/24 02:01:31;;;;;;;8.70;7.80;;;;;;;8.70;100.00;97266.58;109286;1254;65376;-76
2024/02/24 02:03:57;;;;;;;7.70;6.80;;;;;;;8.68;100.00;97248.52;109289;1254;59859;-76
2024/02/24 02:06:28;;;;;;;7.90;7.10;;;;;;;8.67;100.00;97240.81;109267;1254;60343;-77
2024/02/24 02:08:55;;;;;;;8.00;7.20;;;;;;;8.65;100.00;97253.52;109212;1254;66730;-77
2024/02/24 02:11:22;;;;;;;8.50;7.70;;;;;;;8.66;100.00;97277.41;109284;1254;60762;-76
2024/02/24 02:13:49;;;;;;;7.90;7.10;;;;;;;8.64;100.00;97285.13;109305;1254;64063;-76
2024/02/24 02:16:15;;;;;;;8.60;7.40;;;;;;;8.62;100.00;97287.94;109256;1254;59771;-77
2024/02/24 02:18:42;;;;;;;7.80;7.00;;;;;;;8.61;100.00;97284.91;109318;1254;59745;-77
2024/02/24 02:21:09;;;;;;;9.30;8.40;;;;;;;8.57;100.00;97286.94;109296;1254;67823;-76
2024/02/24 02:23:36;;;;;;;10.50;8.80;;;;;;;8.53;100.00;97293.15;109290;1254;61025;-76
2024/02/24 02:26:03;;;;;;;10.00;8.70;;;;;;;8.52;100.00;97298.27;109273;1254;63755;-76
2024/02/24 02:28:29;;;;;;;8.10;6.50;;;;;;;8.53;100.00;97286.42;109242;1254;59958;-76
2024/02/24 02:30:56;;;;;;;6.40;5.80;;;;;;;8.62;100.00;97272.04;109272;1254;59850;-77
2024/02/24 02:33:23;;;;;;;6.50;5.80;;;;;;;8.69;100.00;97273.02;109344;1254;66857;-77
2024/02/24 02:35:49;;;;;;;7.20;6.50;;;;;;;8.76;100.00;97269.77;109284;1254;61003;-77
2024/02/24 02:38:16;;;;;;;7.10;5.50;;;;;;;8.82;100.00;97268.94;109286;1254;64487;-76
2024/02/24 02:40:43;;;;;;;5.60;5.00;;;;;;;8.86;100.00;97271.73;109257;1254;59866;-76
2024/02/24 02:43:09;;;;;;;4.80;4.40;;;;;;;8.91;100.00;97267.90;109277;1254;59738;-76
2024/02/24 02:45:36;;;;;;;4.60;3.80;;;;;;;9.05;100.00;97263.36;109294;1254;66976;-77
2024/02/24 02:48:03;;;;;;;4.10;3.60;;;;;;;9.21;100.00;97263.18;109305;1254;61077;-77
2024/02/24 02:50:30;;;;;;;4.60;4.30;;;;;;;9.33;100.00;97266.33;109275;1254;64022;-77
2024/02/24 02:52:56;;;;;;;4.40;4.00;;;;;;;9.42;100.00;97271.15;109270;1254;59925;-77
2024/02/24 02:55:23;;;;;;;4.60;4.20;;;;;;;9.47;100.00;97265.27;109330;1254;59853;-77
2024/02/24 02:57:50;;;;;;;4.00;3.70;;;;;;;9.47;100.00;97273.96;109270;1254;68254;-77
2024/02/24 03:00:32;;;;;;;4.20;3.40;;;;;;;9.45;100.00;97266.48;109279;1254;60868;-77
2024/02/24 03:02:58;;;;;;;4.10;3.80;;;;;;;9.43;100.00;97264.14;109269;1254;65078;-77
2024/02/24 03:05:26;;;;;;;4.40;4.00;;;;;;;9.41;100.00;97268.74;109280;1254;59851;-77
2024/02/24 03:07:53;;;;;;;4.40;4.10;;;;;;;9.37;100.00;97271.10;109318;1254;59751;-77
2024/02/24 03:10:19;;;;;;;4.40;4.00;;;;;;;9.34;100.00;97259.01;109297;1254;67775;-75
2024/02/24 03:12:46;;;;;;;3.90;3.60;;;;;;;9.29;100.00;97263.33;109329;1254;60988;-75
2024/02/24 03:15:13;;;;;;;4.20;3.50;;;;;;;9.24;100.00;97271.39;108984;1254;64091;-76
2024/02/24 03:17:39;;;;;;;3.80;3.30;;;;;;;9.22;100.00;97273.33;109271;1255;59783;-76
2024/02/24 03:20:08;;;;;;;3.50;3.20;;;;;;;9.19;100.00;97274.45;109283;1254;59891;-76
2024/02/24 03:22:37;;;;;;;3.30;2.80;;;;;;;9.23;100.00;97274.86;109329;1254;66269;-77
2024/02/24 03:25:04;;;;;;;3.20;2.90;;;;;;;9.30;100.00;97279.14;109313;1254;61022;-77
2024/02/24 03:27:31;;;;;;;3.50;3.20;;;;;;;9.34;100.00;97281.11;109258;1254;64352;-76
2024/02/24 03:29:57;;;;;;;3.30;3.10;;;;;;;9.34;100.00;97273.49;109253;1254;59740;-77
2024/02/24 03:32:24;;;;;;;3.30;3.00;;;;;;;9.39;100.00;97280.89;109265;1254;59912;-76
2024/02/24 03:34:50;;;;;;;3.00;2.80;;;;;;;9.44;100.00;97287.34;109283;1254;66748;-76
2024/02/24 03:37:17;;;;;;;3.30;3.00;;;;;;;9.46;100.00;97289.96;109278;1254;60886;-76
2024/02/24 03:39:43;;;;;;;2.90;2.70;;;;;;;9.47;100.00;97294.31;109237;1256;64059;-76
2024/02/24 03:42:10;;;;;;;3.20;3.00;;;;;;;9.50;100.00;97295.10;109289;1254;59660;-76
2024/02/24 03:44:37;;;;;;;2.30;2.00;;;;;;;9.54;100.00;97297.26;109292;1254;60070;-76
2024/02/24 03:47:04;;;;;;;2.30;2.10;;;;;;;9.56;100.00;97301.33;109322;1255;66761;-77
2024/02/24 03:49:30;;;;;;;2.30;2.10;;;;;;;9.57;100.00;97309.18;109293;1257;60071;-77
2024/02/24 03:51:57;;;;;;;2.40;2.20;;;;;;;9.58;100.00;97323.61;109281;1254;65065;-76
2024/02/24 03:54:35;;;;;;;2.30;2.10;;;;;;;9.58;100.00;97323.63;109289;1254;59708;-77
2024/02/24 03:57:20;;;;;;;2.20;2.00;;;;;;;9.59;100.00;97323.25;109027;1255;60119;-76
2024/02/24 03:59:47;;;;;;;1.80;1.70;;;;;;;9.59;100.00;97333.99;109312;1255;66759;-76
2024/02/24 04:02:14;;;;;;;2.60;2.40;;;;;;;9.57;100.00;97337.02;109292;1254;60064;-75
2024/02/24 04:04:40;;;;;;;2.10;1.90;;;;;;;9.55;100.00;97333.52;109286;1255;62741;-76
2024/02/24 04:07:07;;;;;;;2.10;2.00;;;;;;;9.51;100.00;97335.94;109289;1256;59829;-76
2024/02/24 04:09:34;;;;;;;1.90;1.80;;;;;;;9.49;100.00;97344.30;109323;1254;59836;-77
2024/02/24 04:12:01;;;;;;;2.20;1.80;;;;;;;9.48;100.00;97347.11;109308;1256;67781;-77
2024/02/24 04:14:27;;;;;;;2.30;2.10;;;;;;;9.46;100.00;97339.42;109304;1256;60786;-76
2024/02/24 04:16:55;;;;;;;2.20;1.60;;;;;;;9.43;100.00;97330.47;109316;1254;62752;-76
2024/02/24 04:19:22;;;;;;;1.60;1.50;;;;;;;9.42;100.00;97321.02;109290;1255;59894;-77
2024/02/24 04:21:49;;;;;;;2.70;2.10;;;;;;;9.39;100.00;97317.22;109317;1254;59834;-76
2024/02/24 04:24:15;;;;;;;1.70;1.60;;;;;;;9.36;100.00;97316.94;109294;1254;66816;-77
2024/02/24 04:26:42;;;;;;;3.80;1.40;;;;;;;9.33;100.00;97318.45;109291;1255;60148;-76
2024/02/24 04:29:09;;;;;;;1.40;1.30;;;;;;;9.34;100.00;97317.52;109288;1255;65040;-76
2024/02/24 04:31:35;;;;;;;1.20;1.20;;;;;;;9.37;100.00;97316.63;109348;1254;59850;-77
2024/02/24 04:34:02;;;;;;;1.30;1.20;;;;;;;9.42;100.00;97315.91;109311;1254;59773;-76
2024/02/24 04:36:29;;;;;;;1.30;1.20;;;;;;;9.45;100.00;97327.31;109304;1254;67820;-76
2024/02/24 04:38:55;;;;;;;1.20;1.10;;;;;;;9.44;100.00;97329.30;109294;1256;60235;-77
2024/02/24 04:41:22;;;;;;;1.50;1.10;;;;;;;9.42;100.00;97331.42;109284;1255;64013;-75
2024/02/24 04:43:49;;;;;;;1.20;1.10;;;;;;;9.40;100.00;97334.98;109144;1259;59875;-76
2024/02/24 04:46:15;;;;;;;1.30;1.20;;;;;;;9.40;100.00;97344.26;109287;1255;59802;-76
2024/02/24 04:48:42;;;;;;;0.90;0.90;;;;;;;9.43;100.00;97344.27;109014;1254;66749;-76
2024/02/24 04:51:09;;;;;;;1.20;1.10;;;;;;;9.48;100.00;97341.54;109294;1254;59913;-76
2024/02/24 04:53:35;;;;;;;1.00;1.00;;;;;;;9.50;100.00;97341.36;109297;1256;65026;-76
2024/02/24 04:56:02;;;;;;;1.00;1.00;;;;;;;9.52;100.00;97347.85;109302;1254;59918;-76
2024/02/24 04:58:29;;;;;;;1.30;1.10;;;;;;;9.53;100.00;97350.52;109365;1256;59667;-75
2024/02/24 05:00:56;;;;;;;0.90;0.90;;;;;;;9.55;100.00;97351.96;109311;1256;67783;-76
2024/02/24 05:03:23;;;;;;;1.10;1.10;;;;;;;9.55;100.00;97361.48;109013;1256;61095;-77
2024/02/24 05:05:49;;;;;;;1.50;1.10;;;;;;;9.55;100.00;97361.84;109311;1255;64059;-75
2024/02/24 05:08:16;;;;;;;1.30;1.20;;;;;;;9.54;100.00;97363.40;109283;1256;59773;-76
2024/02/24 05:10:43;;;;;;;1.10;1.00;;;;;;;9.52;100.00;97366.73;109013;1256;59891;-76
2024/02/24 05:13:09;;;;;;;1.10;1.00;;;;;;;9.52;100.00;97361.75;109333;1256;66516;-77
2024/02/24 05:15:36;;;;;;;1.20;0.90;;;;;;;9.54;100.00;97363.02;109327;1256;61091;-75
2024/02/24 05:18:03;;;;;;;0.80;0.80;;;;;;;9.56;100.00;97374.56;109273;1257;65069;-76
2024/02/24 05:20:30;;;;;;;1.30;1.20;;;;;;;9.57;100.00;97374.98;109284;1256;60183;-76
2024/02/24 05:22:57;;;;;;;1.20;1.00;;;;;;;9.57;100.00;97368.40;109325;1256;60013;-78
2024/02/24 05:25:23;;;;;;;1.80;1.20;;;;;;;9.57;100.00;97369.89;109295;1255;66685;-77
2024/02/24 05:27:50;;;;;;;1.30;1.20;;;;;;;9.56;100.00;97365.30;109006;1255;61180;-76
2024/02/24 05:30:17;;;;;;;1.00;1.00;;;;;;;9.55;100.00;97362.07;109330;1256;64146;-77
2024/02/24 05:32:43;;;;;;;1.00;1.00;;;;;;;9.54;100.00;97355.94;109311;1256;59899;-77
2024/02/24 05:35:10;;;;;;;1.10;1.00;;;;;;;9.55;100.00;97355.83;109043;1257;59960;-77
2024/02/24 05:37:37;;;;;;;1.40;1.30;;;;;;;9.56;100.00;97363.95;109287;1256;65583;-75
2024/02/24 05:40:04;;;;;;;1.00;1.00;;;;;;;9.54;100.00;97373.30;109320;1257;60211;-78
2024/02/24 05:42:31;;;;;;;1.00;1.00;;;;;;;9.53;100.00;97390.08;109294;1255;64030;-76
2024/02/24 05:44:57;;;;;;;1.30;1.10;;;;;;;9.51;100.00;97402.29;109283;1257;60028;-77
2024/02/24 05:47:24;;;;;;;0.80;0.80;;;;;;;9.50;100.00;97402.35;109057;1256;59903;-75
2024/02/24 05:49:51;;;;;;;1.30;1.20;;;;;;;9.50;100.00;97399.95;109314;1257;67806;-77
2024/02/24 05:52:18;;;;;;;1.20;1.10;;;;;;;9.49;100.00;97412.60;109310;1257;60011;-76
2024/02/24 05:54:44;;;;;;;1.40;1.20;;;;;;;9.48;100.00;97420.88;109274;1255;64452;-76
2024/02/24 05:57:11;;;;;;;1.40;1.30;;;;;;;9.45;100.00;97424.77;109272;1256;59792;-77
2024/02/24 05:59:38;;;;;;;1.40;1.10;;;;;;;9.43;100.00;97428.84;109332;1257;59805;-81
2024/02/24 06:02:04;;;;;;;1.80;1.20;;;;;;;9.41;100.00;97434.73;109326;1256;66944;-81
2024/02/24 06:04:31;;;;;;;1.80;1.40;;;;;;;9.38;100.00;97437.95;109492;1255;60244;-80
2024/02/24 06:06:58;;;;;;;2.00;1.80;;;;;;;9.39;100.00;97442.88;109433;1257;64050;-79
2024/02/24 06:09:24;;;;;;;2.30;1.60;;;;;;;9.44;100.00;97451.27;109385;1255;59770;-73
2024/02/24 06:11:51;;;;;;;1.60;1.30;;;;;;;9.51;100.00;97461.88;109381;1257;59748;-85
2024/02/24 06:14:18;;;;;;;1.20;1.10;;;;;;;9.57;100.00;97465.75;109087;1255;66846;-79
2024/02/24 06:16:44;;;;;;;1.90;1.80;;;;;;;9.67;100.00;97473.05;109303;1256;61218;-82
2024/02/24 06:19:11;;;;;;;2.20;1.60;;;;;;;9.74;100.00;97476.36;109295;1256;64123;-80
2024/02/24 06:21:37;;;;;;;1.50;1.40;;;;;;;9.79;100.00;97478.16;109311;1255;59743;-80
2024/02/24 06:24:04;;;;;;;2.00;1.50;;;;;;;9.85;100.00;97477.96;109027;1255;59863;-82
2024/02/24 06:26:31;;;;;;;2.50;1.70;;;;;;;9.93;100.00;97488.69;109316;1256;68451;-78
2024/02/24 06:28:57;;;;;;;2.10;1.70;;;;;;;9.99;100.00;97495.56;109266;1256;61049;-78
2024/02/24 06:31:24;;;;;;;1.80;1.60;;;;;;;10.04;100.00;97501.71;109296;1256;65003;-76
2024/02/24 06:33:51;;;;;;;4.10;3.80;;;;;;;10.07;100.00;97510.15;109279;1257;59848;-78
2024/02/24 06:36:17;;;;;;;6.30;5.50;;;;;;;9.97;100.00;97526.68;109277;1257;59966;-77
2024/02/24 06:38:44;;;;;;;6.80;5.70;;;;;;;9.74;100.00;97532.58;109291;1256;66823;-78
2024/02/24 06:41:11;;;;;;;6.20;5.60;;;;;;;9.49;100.00;97552.58;109289;1257;61001;-78
2024/02/24 06:43:37;;;;;;;6.80;6.10;;;;;;;9.23;100.00;97571.33;109282;1256;65273;-77
2024/02/24 06:46:04;;;;;;;6.70;6.10;;;;;;;8.96;100.00;97590.75;109003;1256;59954;-77
2024/02/24 06:48:31;;;;;;;7.20;6.50;;;;;;;8.70;100.00;97587.39;109004;1257;59866;-78
2024/02/24 06:50:57;;;;;;;6.30;5.70;;;;;;;8.48;100.00;97606.15;109302;1257;67864;-78
2024/02/24 06:53:24;;;;;;;6.80;6.20;;;;;;;8.27;100.00;97617.72;109272;1257;59945;-77
2024/02/24 06:55:50;;;;;;;6.30;5.70;;;;;;;8.10;100.00;97626.64;109285;1256;62775;-77
2024/02/24 06:58:17;;;;;;;5.50;5.10;;;;;;;7.97;100.00;97622.38;109273;1259;59822;-78
2024/02/24 07:00:44;;;;;;;6.20;5.50;;;;;;;7.87;100.00;97642.96;109347;1255;59869;-78
2024/02/24 07:03:11;;;;;;;4.90;4.50;;;;;;;7.79;100.00;97637.45;109293;1256;67962;-78
2024/02/24 07:05:37;;;;;;;7.00;5.80;;;;;;;7.73;100.00;97650.23;109297;1257;61304;-77
2024/02/24 07:08:04;;;;;;;6.30;5.60;;;;;;;7.69;100.00;97657.81;109035;1257;64137;-78
2024/02/24 07:10:31;;;;;;;5.60;5.10;;;;;;;7.65;100.00;97654.19;109245;1257;59861;-78
2024/02/24 07:12:57;;;;;;;5.20;3.90;;;;;;;7.59;100.00;97669.55;109317;1256;59730;-77
2024/02/24 07:15:25;;;;;;;2.80;2.60;;;;;;;7.51;100.00;97659.90;109272;1257;66780;-78
2024/02/24 07:17:52;;;;;;;3.10;2.80;;;;;;;7.43;100.00;97669.13;109292;1257;60070;-77
2024/02/24 07:20:19;;;;;;;2.20;2.10;;;;;;;7.34;100.00;97684.54;109293;1257;65305;-79
2024/02/24 07:22:48;;;;;;;1.90;1.80;;;;;;;7.23;100.00;97689.36;109265;1256;59852;-79
2024/02/24 07:25:16;;;;;;;3.80;3.10;;;;;;;7.14;100.00;97689.85;109035;1256;59921;-77
2024/02/24 07:27:42;;;;;;;2.20;2.00;;;;;;;7.09;100.00;97697.69;109289;1260;68068;-78
2024/02/24 07:30:09;;;;;;;2.50;2.30;;;;;;;7.03;100.00;97707.95;109245;1257;61240;-78
2024/02/24 07:32:36;;;;;;;2.80;1.90;;;;;;;7.01;100.00;97715.39;109284;1255;63836;-78
2024/02/24 07:35:03;;;;;;;2.70;2.50;;;;;;;7.01;100.00;97711.46;109298;1257;60078;-77
2024/02/24 07:37:30;;;;;;;2.40;2.20;;;;;;;7.03;100.00;97720.00;109299;1255;59938;-77
2024/02/24 07:39:56;;;;;;;3.30;2.90;;;;;;;7.02;100.00;97724.11;109147;1256;66785;-78
2024/02/24 07:42:24;;;;;;;5.10;4.60;;;;;;;7.01;100.00;97720.30;109258;1256;60027;-78
2024/02/24 07:44:51;;;;;;;8.00;6.30;;;;;;;7.03;100.00;97728.09;109131;1256;65166;-79
2024/02/24 07:47:18;;;;;;;9.30;8.30;;;;;;;7.05;100.00;97735.72;109125;1256;59935;-78
2024/02/24 07:49:45;;;;;;;8.40;7.30;;;;;;;7.08;100.00;97730.78;109194;1256;59911;-78
2024/02/24 07:52:12;;;;;;;8.20;7.30;;;;;;;7.12;100.00;97734.33;108999;1256;67960;-78
2024/02/24 07:54:38;;;;;;;9.30;7.50;;;;;;;7.13;100.00;97744.20;109178;1256;60156;-77
2024/02/24 07:57:05;;;;;;;7.40;6.70;;;;;;;7.09;100.00;97754.03;109174;1256;64276;-80
2024/02/24 07:59:31;;;;;;;6.70;6.00;;;;;;;7.08;100.00;97770.67;109173;1256;60041;-80
2024/02/24 08:01:58;;;;;;;7.70;7.00;;;;;;;7.08;100.00;97778.46;109208;1257;59747;-76
2024/02/24 08:04:25;;;;;;;9.10;7.80;;;;;;;7.11;100.00;97788.83;109206;1256;67855;-80
2024/02/24 08:06:51;;;;;;;9.00;8.10;;;;;;;7.15;100.00;97798.98;109147;1256;60985;-78
2024/02/24 08:09:18;;;;;;;9.40;8.10;;;;;;;7.13;100.00;97802.62;109174;1256;65270;-78
2024/02/24 08:11:44;;;;;;;9.40;8.50;;;;;;;7.08;100.00;97809.73;109134;1257;60116;-80
2024/02/24 08:14:11;;;;;;;8.90;8.00;;;;;;;7.02;100.00;97811.86;109175;1256;59811;-78
2024/02/24 08:16:38;;;;;;;6.40;5.90;;;;;;;6.99;100.00;97813.83;109178;1256;67849;-77
2024/02/24 08:19:06;;;;;;;6.00;5.40;;;;;;;6.95;100.00;97818.02;109172;1255;61083;-77
2024/02/24 08:21:36;;;;;;;3.80;3.50;;;;;;;6.88;100.00;97822.59;109182;1256;66037;-80
2024/02/24 08:24:07;;;;;;;3.50;3.20;;;;;;;6.81;100.00;97822.05;109109;1256;59995;-77
2024/02/24 08:26:37;;;;;;;3.40;3.10;;;;;;;6.75;100.00;97818.73;109162;1256;59979;-80
2024/02/24 08:29:03;;;;;;;3.60;3.30;;;;;;;6.72;100.00;97823.35;109154;1257;67922;-78
2024/02/24 08:31:30;;;;;;;3.30;2.90;;;;;;;6.70;100.00;97831.60;108979;1255;60638;-77
2024/02/24 08:33:57;;;;;;;4.50;3.80;;;;;;;6.68;100.00;97831.75;109175;1255;64035;-77
2024/02/24 08:36:23;;;;;;;3.20;2.90;;;;;;;6.66;100.00;97832.46;109197;1256;59839;-78
2024/02/24 08:38:50;;;;;;;6.70;4.80;;;;;;;6.65;100.00;97830.63;109179;1256;60041;-78
2024/02/24 08:41:17;;;;;;;5.60;5.10;;;;;;;6.65;100.00;97828.85;109188;1256;68104;-78
2024/02/24 08:43:43;;;;;;;6.90;5.80;;;;;;;6.66;100.00;97832.64;109175;1256;61337;-78
2024/02/24 08:46:10;;;;;;;6.80;6.20;;;;;;;6.66;100.00;97832.66;109147;1256;64107;-78
2024/02/24 08:48:37;;;;;;;6.50;5.80;;;;;;;6.62;100.00;97836.61;109060;1257;59889;-78
2024/02/24 08:51:04;;;;;;;6.30;5.70;;;;;;;6.60;100.00;97838.85;109196;1255;59763;-78
2024/02/24 08:53:30;;;;;;;7.60;6.90;;;;;;;6.62;100.00;97840.66;109145;1255;66944;-77
2024/02/24 08:56:03;;;;;;;6.70;6.00;;;;;;;6.66;100.00;97848.89;109145;1258;61007;-77
2024/02/24 08:58:29;;;;;;;8.50;6.40;;;;;;;6.68;100.00;97858.05;109143;1257;64053;-78
2024/02/24 09:00:57;;;;;;;7.80;7.10;;;;;;;6.71;100.00;97858.53;109132;1256;59849;-77
2024/02/24 09:03:24;;;;;;;8.60;7.80;;;;;;;6.72;100.00;97861.86;109179;1256;59816;-77
2024/02/24 09:05:51;;;;;;;8.60;7.80;;;;;;;6.72;100.00;97860.96;109177;1256;67566;-78
2024/02/24 09:08:17;;;;;;;8.60;7.90;;;;;;;6.75;100.00;97869.41;109163;1255;61094;-78
2024/02/24 09:10:44;;;;;;;8.70;7.90;;;;;;;6.79;100.00;97875.27;108966;1256;65064;-78
2024/02/24 09:13:11;;;;;;;7.90;7.10;;;;;;;6.83;100.00;97879.98;109136;1255;59932;-78
2024/02/24 09:15:37;;;;;;;5.90;5.40;;;;;;;6.86;100.00;97886.27;109181;1255;59793;-78
2024/02/24 09:18:07;;;;;;;5.30;4.80;;;;;;;6.87;100.00;97896.66;109163;1255;66792;-77
2024/02/24 09:20:35;;;;;;;5.00;4.50;;;;;;;6.87;100.00;97903.88;109155;1259;60027;-77
2024/02/24 09:23:03;;;;;;;5.40;4.80;;;;;;;6.87;100.00;97908.27;109162;1257;64205;-78
2024/02/24 09:25:29;;;;;;;4.60;4.20;;;;;;;6.89;100.00;97913.60;109189;1259;60122;-78
2024/02/24 09:27:56;;;;;;;4.90;4.40;;;;;;;6.91;100.00;97915.57;109156;1255;59849;-77
2024/02/24 09:30:23;;;;;;;5.40;4.80;;;;;;;6.94;100.00;97919.79;109158;1256;68718;-78
2024/02/24 09:32:50;;;;;;;5.10;4.60;;;;;;;6.96;100.00;97927.12;109169;1257;60981;-77
2024/02/24 09:35:16;;;;;;;5.10;4.20;;;;;;;7.00;100.00;97930.89;109171;1256;64953;-78
2024/02/24 09:37:44;;;;;;;6.00;4.70;;;;;;;7.06;100.00;97930.80;109179;1255;59984;-77
2024/02/24 09:40:11;;;;;;;5.00;4.50;;;;;;;7.15;100.00;97926.36;109188;1256;60622;-78
2024/02/24 09:42:39;;;;;;;4.40;4.00;;;;;;;7.26;100.00;97929.94;109167;1256;67978;-77
2024/02/24 09:45:12;;;;;;;5.30;4.20;;;;;;;7.40;100.00;97934.61;109174;1255;60188;-77
2024/02/24 09:47:43;;;;;;;4.80;4.40;;;;;;;7.50;100.00;97943.95;109162;1257;65151;-78
2024/02/24 09:50:11;;;;;;;4.60;4.20;;;;;;;7.61;100.00;97950.64;109160;1256;59847;-78
2024/02/24 09:52:41;;;;;;;5.80;5.30;;;;;;;7.66;100.00;97951.11;109181;1256;59767;-78
2024/02/24 09:55:10;;;;;;;5.40;4.90;;;;;;;7.69;100.00;97959.56;109202;1256;68030;-77
2024/02/24 09:57:38;;;;;;;4.80;4.30;;;;;;;7.78;100.00;97961.79;109208;1257;59946;-78
2024/02/24 10:00:05;;;;;;;5.00;4.30;;;;;;;7.73;100.00;97965.29;109182;1255;65183;-77
2024/02/24 10:02:33;;;;;;;5.00;4.50;;;;;;;7.67;100.00;97969.77;109156;1257;60284;-78
2024/02/24 10:04:59;;;;;;;4.10;3.70;;;;;;;7.73;100.00;97977.16;109174;1256;59803;-78
2024/02/24 10:07:29;;;;;;;5.00;4.50;;;;;;;7.85;100.00;97978.55;109188;1257;66546;-77
2024/02/24 10:09:56;;;;;;;4.50;4.10;;;;;;;7.99;100.00;97980.56;109197;1256;60129;-78
2024/02/24 10:12:24;;;;;;;4.70;4.20;;;;;;;8.08;100.00;97982.19;109190;1256;64067;-78
2024/02/24 10:14:50;;;;;;;5.10;4.60;;;;;;;8.19;100.00;97985.11;109174;1257;59830;-77
2024/02/24 10:17:17;;;;;;;4.60;4.10;;;;;;;8.29;100.00;97989.88;109212;1256;60557;-77
2024/02/24 10:19:46;;;;;;;5.40;3.70;;;;;;;8.39;100.00;97996.09;109161;1256;67826;-77
2024/02/24 10:22:19;;;;;;;4.00;3.50;;;;;;;8.52;100.00;97995.31;109201;1256;61127;-77
2024/02/24 10:24:45;;;;;;;4.30;3.40;;;;;;;8.63;100.00;97994.14;109210;1257;63942;-74
2024/02/24 10:27:15;;;;;;;3.90;3.50;;;;;;;8.73;100.00;97999.89;109167;1256;60048;-74
2024/02/24 10:29:50;;;;;;;4.00;3.70;;;;;;;8.82;100.00;97995.52;109189;1255;59669;-74
2024/02/24 10:32:17;;;;;;;3.90;3.50;;;;;;;8.89;100.00;97996.58;109179;1257;67839;-73
2024/02/24 10:34:44;;;;;;;4.80;4.30;;;;;;;8.96;100.00;98001.55;109227;1255;61102;-74
2024/02/24 10:37:10;;;;;;;5.40;4.00;;;;;;;9.01;100.00;98000.30;109162;1256;65099;-74
2024/02/24 10:39:39;;;;;;;5.50;4.90;;;;;;;9.07;100.00;97996.42;109181;1256;59755;-74
2024/02/24 10:42:06;;;;;;;4.10;3.80;;;;;;;9.12;100.00;97994.11;109213;1256;59790;-74
2024/02/24 10:44:33;;;;;;;4.60;4.20;;;;;;;9.17;100.00;97998.72;109201;1256;66743;-74
2024/02/24 10:47:01;;;;;;;3.70;3.30;;;;;;;9.23;100.00;98002.30;109200;1257;60106;-74
2024/02/24 10:49:28;;;;;;;3.80;3.50;;;;;;;9.21;100.00;98007.43;109207;1257;63981;-73
2024/02/24 10:51:56;;;;;;;4.00;3.60;;;;;;;9.15;100.00;98011.04;109167;1256;59865;-73
2024/02/24 10:54:29;;;;;;;4.10;3.80;;;;;;;9.13;100.00;98010.89;109235;1256;59747;-73
2024/02/24 10:56:59;;;;;;;4.20;3.70;;;;;;;9.19;100.00;98010.92;109009;1257;67904;-74
2024/02/24 10:59:28;;;;;;;4.40;4.00;;;;;;;9.30;100.00;98008.20;109123;1257;61145;-74
2024/02/24 11:02:00;;;;;;;4.40;3.70;;;;;;;9.35;100.00;98009.86;109189;1256;63721;-74
2024/02/24 11:04:27;;;;;;;4.40;4.00;;;;;;;9.42;100.00;98008.24;108933;1257;59892;-72
2024/02/24 11:06:55;;;;;;;4.40;3.90;;;;;;;9.53;100.00;98012.16;109206;1256;59697;-73
2024/02/24 11:09:24;;;;;;;4.60;3.60;;;;;;;9.61;100.00;98012.77;109202;1255;66986;-73
2024/02/24 11:11:51;;;;;;;3.80;3.40;;;;;;;9.71;100.00;98010.96;109225;1257;61160;-72
2024/02/24 11:14:21;;;;;;;3.70;3.40;;;;;;;9.84;100.00;98014.01;109199;1256;64096;-72
2024/02/24 11:16:48;;;;;;;4.80;3.90;;;;;;;9.98;100.00;98020.20;109150;1256;60203;-73
2024/02/24 11:19:44;;;;;;;5.30;4.40;;;;;;;10.09;100.00;98019.48;109208;1255;59691;-73
2024/02/24 11:22:21;;;;;;;3.40;3.10;;;;;;;10.23;100.00;98019.92;109209;1255;67788;-73
2024/02/24 11:25:08;;;;;;;4.40;3.80;;;;;;;10.37;100.00;98020.82;109194;1259;61322;-73